sensor_id;sensor_type;location;lat;lon;timestamp;temperature;humidity
11989;DHT22;6054;50.966;7.094;2024-02-23T00:00:12;15.10;58.00
11989;DHT22;6054;50.966;7.094;2024-02-23T00:02:39;15.10;57.20
11989;DHT22;6054;50.966;7.094;2024-02-23T00:05:06;15.00;56.40
11989;DHT22;6054;50.966;7.094;2024-02-23T00:07:34;15.00;57.30
11989;DHT22;6054;50.966;7.094;2024-02-23T00:10:00;15.00;57.20
11989;DHT22;6054;50.966;7.094;2024-02-23T00:12:28;15.00;57.80
11989;DHT22;6054;50.966;7.094;2024-02-23T00:14:56;15.10;56.60
11989;DHT22;6054;50.966;7.094;2024-02-23T00:17:23;15.00;57.60
11989;DHT22;6054;50.966;7.094;2024-02-23T00:19:50;15.00;58.00
11989;DHT22;6054;50.966;7.094;2024-02-23T00:22:18;15.00;59.30
11989;DHT22;6054;50.966;7.094;2024-02-23T00:24:45;15.00;59.90
11989;DHT22;6054;50.966;7.094;2024-02-23T00:27:12;15.10;59.90
11989;DHT22;6054;50.966;7.094;2024-02-23T00:29:38;15.10;59.30
11989;DHT22;6054;50.966;7.094;2024-02-23T00:32:07;15.10;58.80
11989;DHT22;6054;50.966;7.094;2024-02-23T00:34:34;15.10;58.70
11989;DHT22;6054;50.966;7.094;2024-02-23T00:37:01;15.10;57.60
11989;DHT22;6054;50.966;7.094;2024-02-23T00:39:29;15.00;56.80
11989;DHT22;6054;50.966;7.094;2024-02-23T00:41:56;14.90;56.90
11989;DHT22;6054;50.966;7.094;2024-02-23T00:44:23;14.90;56.50
11989;DHT22;6054;50.966;7.094;2024-02-23T00:46:50;14.80;57.40
11989;DHT22;6054;50.966;7.094;2024-02-23T00:49:18;15.10;58.70
11989;DHT22;6054;50.966;7.094;2024-02-23T00:51:45;14.70;58.80
11989;DHT22;6054;50.966;7.094;2024-02-23T00:54:12;14.70;58.40
11989;DHT22;6054;50.966;7.094;2024-02-23T00:56:38;14.70;58.40
11989;DHT22;6054;50.966;7.094;2024-02-23T00:59:05;14.70;59.40
11989;DHT22;6054;50.966;7.094;2024-02-23T01:01:32;14.70;59.40
11989;DHT22;6054;50.966;7.094;2024-02-23T01:03:59;14.70;59.80
11989;DHT22;6054;50.966;7.094;2024-02-23T01:06:27;14.70;59.50
11989;DHT22;6054;50.966;7.094;2024-02-23T01:08:54;14.70;59.50
11989;DHT22;6054;50.966;7.094;2024-02-23T01:11:21;14.90;59.60
11989;DHT22;6054;50.966;7.094;2024-02-23T01:13:47;14.70;59.90
11989;DHT22;6054;50.966;7.094;2024-02-23T01:16:15;14.70;60.00
11989;DHT22;6054;50.966;7.094;2024-02-23T01:18:42;14.70;60.40
11989;DHT22;6054;50.966;7.094;2024-02-23T01:21:09;14.70;59.80
11989;DHT22;6054;50.966;7.094;2024-02-23T01:23:37;14.70;59.90
11989;DHT22;6054;50.966;7.094;2024-02-23T01:26:04;14.70;59.80
11989;DHT22;6054;50.966;7.094;2024-02-23T01:28:33;15.10;60.40
11989;DHT22;6054;50.966;7.094;2024-02-23T01:30:59;14.70;60.00
11989;DHT22;6054;50.966;7.094;2024-02-23T01:33:26;14.70;59.20
11989;DHT22;6054;50.966;7.094;2024-02-23T01:35:53;14.70;59.20
11989;DHT22;6054;50.966;7.094;2024-02-23T01:38:21;14.60;58.80
11989;DHT22;6054;50.966;7.094;2024-02-23T01:40:51;14.60;59.60
11989;DHT22;6054;50.966;7.094;2024-02-23T01:43:18;14.50;59.50
11989;DHT22;6054;50.966;7.094;2024-02-23T01:45:45;14.50;59.60
11989;DHT22;6054;50.966;7.094;2024-02-23T01:48:12;14.50;58.90
11989;DHT22;6054;50.966;7.094;2024-02-23T01:50:39;14.50;58.50
11989;DHT22;6054;50.966;7.094;2024-02-23T01:53:06;14.50;58.80
11989;DHT22;6054;50.966;7.094;2024-02-23T01:55:33;14.40;58.10
11989;DHT22;6054;50.966;7.094;2024-02-23T01:58:02;14.40;58.80
11989;DHT22;6054;50.966;7.094;2024-02-23T02:00:29;14.40;59.50
11989;DHT22;6054;50.966;7.094;2024-02-23T02:02:57;14.30;59.10
11989;DHT22;6054;50.966;7.094;2024-02-23T02:05:24;14.30;59.40
11989;DHT22;6054;50.966;7.094;2024-02-23T02:07:51;14.30;58.80
11989;DHT22;6054;50.966;7.094;2024-02-23T02:10:24;14.30;59.10
11989;DHT22;6054;50.966;7.094;2024-02-23T02:12:51;14.30;59.60
11989;DHT22;6054;50.966;7.094;2024-02-23T02:15:20;14.60;59.20
11989;DHT22;6054;50.966;7.094;2024-02-23T02:17:47;14.30;59.50
11989;DHT22;6054;50.966;7.094;2024-02-23T02:20:14;14.30;59.50
11989;DHT22;6054;50.966;7.094;2024-02-23T02:22:41;14.30;59.70
11989;DHT22;6054;50.966;7.094;2024-02-23T02:25:08;14.30;59.50
11989;DHT22;6054;50.966;7.094;2024-02-23T02:27:35;14.30;59.80
11989;DHT22;6054;50.966;7.094;2024-02-23T02:30:01;14.30;59.70
11989;DHT22;6054;50.966;7.094;2024-02-23T02:32:30;14.30;59.80
11989;DHT22;6054;50.966;7.094;2024-02-23T02:34:56;14.30;59.10
11989;DHT22;6054;50.966;7.094;2024-02-23T02:37:23;14.30;59.50
11989;DHT22;6054;50.966;7.094;2024-02-23T02:39:50;14.30;59.40
11989;DHT22;6054;50.966;7.094;2024-02-23T02:42:17;14.20;58.70
11989;DHT22;6054;50.966;7.094;2024-02-23T02:44:44;14.20;58.60
11989;DHT22;6054;50.966;7.094;2024-02-23T02:47:11;14.10;58.70
11989;DHT22;6054;50.966;7.094;2024-02-23T02:49:39;14.10;58.90
11989;DHT22;6054;50.966;7.094;2024-02-23T02:52:06;14.10;58.50
11989;DHT22;6054;50.966;7.094;2024-02-23T02:54:33;14.10;58.80
11989;DHT22;6054;50.966;7.094;2024-02-23T02:57:00;14.10;59.10
11989;DHT22;6054;50.966;7.094;2024-02-23T02:59:27;14.00;57.90
11989;DHT22;6054;50.966;7.094;2024-02-23T03:01:54;14.00;59.00
11989;DHT22;6054;50.966;7.094;2024-02-23T03:04:22;14.00;59.00
11989;DHT22;6054;50.966;7.094;2024-02-23T03:06:51;14.00;58.50
11989;DHT22;6054;50.966;7.094;2024-02-23T03:09:18;14.30;58.60
11989;DHT22;6054;50.966;7.094;2024-02-23T03:11:44;13.90;58.20
11989;DHT22;6054;50.966;7.094;2024-02-23T03:14:11;13.90;58.00
11989;DHT22;6054;50.966;7.094;2024-02-23T03:16:39;13.80;57.80
11989;DHT22;6054;50.966;7.094;2024-02-23T03:19:07;13.90;58.20
11989;DHT22;6054;50.966;7.094;2024-02-23T03:21:34;13.90;58.70
11989;DHT22;6054;50.966;7.094;2024-02-23T03:24:03;13.90;58.30
11989;DHT22;6054;50.966;7.094;2024-02-23T03:26:30;13.90;58.70
11989;DHT22;6054;50.966;7.094;2024-02-23T03:28:57;14.00;58.60
11989;DHT22;6054;50.966;7.094;2024-02-23T03:31:23;13.80;58.80
11989;DHT22;6054;50.966;7.094;2024-02-23T03:33:50;13.80;59.00
11989;DHT22;6054;50.966;7.094;2024-02-23T03:36:17;13.70;58.50
11989;DHT22;6054;50.966;7.094;2024-02-23T03:38:44;13.80;58.70
11989;DHT22;6054;50.966;7.094;2024-02-23T03:41:12;13.70;58.80
11989;DHT22;6054;50.966;7.094;2024-02-23T03:43:39;13.70;58.60
11989;DHT22;6054;50.966;7.094;2024-02-23T03:46:06;13.70;58.40
11989;DHT22;6054;50.966;7.094;2024-02-23T03:48:33;13.70;58.50
11989;DHT22;6054;50.966;7.094;2024-02-23T03:50:59;13.60;58.40
11989;DHT22;6054;50.966;7.094;2024-02-23T03:53:26;13.60;58.40
11989;DHT22;6054;50.966;7.094;2024-02-23T03:55:56;13.60;58.60
11989;DHT22;6054;50.966;7.094;2024-02-23T03:58:25;13.60;59.00
11989;DHT22;6054;50.966;7.094;2024-02-23T04:00:52;13.60;58.70
11989;DHT22;6054;50.966;7.094;2024-02-23T04:03:18;13.60;58.20
11989;DHT22;6054;50.966;7.094;2024-02-23T04:05:45;13.60;58.90
11989;DHT22;6054;50.966;7.094;2024-02-23T04:08:12;13.60;58.90
11989;DHT22;6054;50.966;7.094;2024-02-23T04:10:39;13.60;58.80
11989;DHT22;6054;50.966;7.094;2024-02-23T04:13:06;13.60;59.20
11989;DHT22;6054;50.966;7.094;2024-02-23T04:15:35;13.60;59.20
11989;DHT22;6054;50.966;7.094;2024-02-23T04:18:02;13.60;58.90
11989;DHT22;6054;50.966;7.094;2024-02-23T04:20:29;13.60;59.60
11989;DHT22;6054;50.966;7.094;2024-02-23T04:22:56;13.60;58.80
11989;DHT22;6054;50.966;7.094;2024-02-23T04:25:22;13.60;59.40
11989;DHT22;6054;50.966;7.094;2024-02-23T04:27:50;13.70;59.60
11989;DHT22;6054;50.966;7.094;2024-02-23T04:30:17;13.70;59.00
11989;DHT22;6054;50.966;7.094;2024-02-23T04:32:45;13.70;59.40
11989;DHT22;6054;50.966;7.094;2024-02-23T04:35:13;13.70;58.90
11989;DHT22;6054;50.966;7.094;2024-02-23T04:37:39;13.70;57.90
11989;DHT22;6054;50.966;7.094;2024-02-23T04:40:07;13.70;59.10
11989;DHT22;6054;50.966;7.094;2024-02-23T04:42:38;13.70;59.80
11989;DHT22;6054;50.966;7.094;2024-02-23T04:45:07;13.70;59.00
11989;DHT22;6054;50.966;7.094;2024-02-23T04:47:34;13.70;59.60
11989;DHT22;6054;50.966;7.094;2024-02-23T04:50:03;13.80;59.60
11989;DHT22;6054;50.966;7.094;2024-02-23T04:52:30;13.80;59.40
11989;DHT22;6054;50.966;7.094;2024-02-23T04:54:57;13.70;58.60
11989;DHT22;6054;50.966;7.094;2024-02-23T04:57:26;13.80;59.20
11989;DHT22;6054;50.966;7.094;2024-02-23T04:59:53;13.70;59.60
11989;DHT22;6054;50.966;7.094;2024-02-23T05:02:19;14.10;59.50
11989;DHT22;6054;50.966;7.094;2024-02-23T05:04:47;13.80;59.40
11989;DHT22;6054;50.966;7.094;2024-02-23T05:07:15;13.80;58.00
11989;DHT22;6054;50.966;7.094;2024-02-23T05:09:42;13.70;58.40
11989;DHT22;6054;50.966;7.094;2024-02-23T05:12:09;13.70;58.50
11989;DHT22;6054;50.966;7.094;2024-02-23T05:14:36;13.70;58.50
11989;DHT22;6054;50.966;7.094;2024-02-23T05:17:03;13.70;58.40
11989;DHT22;6054;50.966;7.094;2024-02-23T05:19:30;13.70;58.80
11989;DHT22;6054;50.966;7.094;2024-02-23T05:21:59;13.70;58.00
11989;DHT22;6054;50.966;7.094;2024-02-23T05:24:30;13.70;58.30
11989;DHT22;6054;50.966;7.094;2024-02-23T05:26:57;13.70;57.80
11989;DHT22;6054;50.966;7.094;2024-02-23T05:29:27;13.70;57.80
11989;DHT22;6054;50.966;7.094;2024-02-23T05:31:55;13.60;57.40
11989;DHT22;6054;50.966;7.094;2024-02-23T05:34:23;13.90;57.10
11989;DHT22;6054;50.966;7.094;2024-02-23T05:36:50;13.60;57.70
11989;DHT22;6054;50.966;7.094;2024-02-23T05:39:17;13.80;57.50
11989;DHT22;6054;50.966;7.094;2024-02-23T05:41:46;13.50;57.30
11989;DHT22;6054;50.966;7.094;2024-02-23T05:44:13;13.70;57.90
11989;DHT22;6054;50.966;7.094;2024-02-23T05:46:42;13.50;57.70
11989;DHT22;6054;50.966;7.094;2024-02-23T05:49:09;13.50;57.40
11989;DHT22;6054;50.966;7.094;2024-02-23T05:51:36;13.40;57.40
11989;DHT22;6054;50.966;7.094;2024-02-23T05:54:04;13.40;57.10
11989;DHT22;6054;50.966;7.094;2024-02-23T05:56:30;13.40;57.60
11989;DHT22;6054;50.966;7.094;2024-02-23T05:58:59;13.40;57.80
11989;DHT22;6054;50.966;7.094;2024-02-23T06:01:26;13.40;57.70
11989;DHT22;6054;50.966;7.094;2024-02-23T06:03:53;13.30;57.90
11989;DHT22;6054;50.966;7.094;2024-02-23T06:06:20;13.30;57.90
11989;DHT22;6054;50.966;7.094;2024-02-23T06:08:47;13.30;58.00
11989;DHT22;6054;50.966;7.094;2024-02-23T06:11:15;13.30;57.90
11989;DHT22;6054;50.966;7.094;2024-02-23T06:13:42;13.30;57.50
11989;DHT22;6054;50.966;7.094;2024-02-23T06:16:11;13.20;57.50
11989;DHT22;6054;50.966;7.094;2024-02-23T06:18:39;13.20;57.90
11989;DHT22;6054;50.966;7.094;2024-02-23T06:21:12;13.20;58.20
11989;DHT22;6054;50.966;7.094;2024-02-23T06:23:39;13.20;58.50
11989;DHT22;6054;50.966;7.094;2024-02-23T06:26:06;13.20;58.30
11989;DHT22;6054;50.966;7.094;2024-02-23T06:28:33;13.50;58.50
11989;DHT22;6054;50.966;7.094;2024-02-23T06:31:00;13.20;58.30
11989;DHT22;6054;50.966;7.094;2024-02-23T06:33:30;13.20;58.00
11989;DHT22;6054;50.966;7.094;2024-02-23T06:35:57;13.20;58.50
11989;DHT22;6054;50.966;7.094;2024-02-23T06:38:24;13.10;57.20
11989;DHT22;6054;50.966;7.094;2024-02-23T06:40:51;13.10;57.70
11989;DHT22;6054;50.966;7.094;2024-02-23T06:43:18;13.10;57.70
11989;DHT22;6054;50.966;7.094;2024-02-23T06:45:45;13.10;57.30
11989;DHT22;6054;50.966;7.094;2024-02-23T06:48:12;13.10;57.90
11989;DHT22;6054;50.966;7.094;2024-02-23T06:50:40;13.10;58.10
11989;DHT22;6054;50.966;7.094;2024-02-23T06:53:07;13.20;58.20
11989;DHT22;6054;50.966;7.094;2024-02-23T06:55:34;13.10;58.40
11989;DHT22;6054;50.966;7.094;2024-02-23T06:58:01;13.20;58.20
11989;DHT22;6054;50.966;7.094;2024-02-23T07:00:30;13.20;58.10
11989;DHT22;6054;50.966;7.094;2024-02-23T07:02:57;13.10;57.50
11989;DHT22;6054;50.966;7.094;2024-02-23T07:05:24;13.10;58.30
11989;DHT22;6054;50.966;7.094;2024-02-23T07:07:53;13.10;57.70
11989;DHT22;6054;50.966;7.094;2024-02-23T07:10:20;13.10;57.40
11989;DHT22;6054;50.966;7.094;2024-02-23T07:12:48;13.50;58.10
11989;DHT22;6054;50.966;7.094;2024-02-23T07:15:18;13.10;58.10
11989;DHT22;6054;50.966;7.094;2024-02-23T07:17:45;13.10;57.60
11989;DHT22;6054;50.966;7.094;2024-02-23T07:20:12;13.10;57.30
11989;DHT22;6054;50.966;7.094;2024-02-23T07:22:39;13.10;58.00
11989;DHT22;6054;50.966;7.094;2024-02-23T07:25:11;13.10;58.50
11989;DHT22;6054;50.966;7.094;2024-02-23T07:27:37;13.10;58.20
11989;DHT22;6054;50.966;7.094;2024-02-23T07:30:06;13.30;57.00
11989;DHT22;6054;50.966;7.094;2024-02-23T07:32:33;13.20;58.60
11989;DHT22;6054;50.966;7.094;2024-02-23T07:34:59;13.10;58.20
11989;DHT22;6054;50.966;7.094;2024-02-23T07:37:26;13.20;58.10
11989;DHT22;6054;50.966;7.094;2024-02-23T07:39:53;13.20;58.50
11989;DHT22;6054;50.966;7.094;2024-02-23T07:42:21;13.20;57.70
11989;DHT22;6054;50.966;7.094;2024-02-23T07:44:48;13.20;57.30
11989;DHT22;6054;50.966;7.094;2024-02-23T07:47:15;13.20;56.70
11989;DHT22;6054;50.966;7.094;2024-02-23T07:49:43;13.30;57.70
11989;DHT22;6054;50.966;7.094;2024-02-23T07:52:10;13.70;57.40
11989;DHT22;6054;50.966;7.094;2024-02-23T07:54:37;13.20;57.30
11989;DHT22;6054;50.966;7.094;2024-02-23T07:57:04;13.50;57.80
11989;DHT22;6054;50.966;7.094;2024-02-23T07:59:32;13.30;57.10
11989;DHT22;6054;50.966;7.094;2024-02-23T08:01:59;13.30;57.80
11989;DHT22;6054;50.966;7.094;2024-02-23T08:04:26;13.30;58.30
11989;DHT22;6054;50.966;7.094;2024-02-23T08:06:53;13.50;57.90
11989;DHT22;6054;50.966;7.094;2024-02-23T08:09:20;13.40;57.50
11989;DHT22;6054;50.966;7.094;2024-02-23T08:11:49;13.40;57.90
11989;DHT22;6054;50.966;7.094;2024-02-23T08:14:16;13.50;57.80
11989;DHT22;6054;50.966;7.094;2024-02-23T08:16:44;13.50;57.40
11989;DHT22;6054;50.966;7.094;2024-02-23T08:19:11;13.50;57.00
11989;DHT22;6054;50.966;7.094;2024-02-23T08:21:39;13.60;56.90
11989;DHT22;6054;50.966;7.094;2024-02-23T08:24:07;13.50;57.00
11989;DHT22;6054;50.966;7.094;2024-02-23T08:26:35;13.50;57.10
11989;DHT22;6054;50.966;7.094;2024-02-23T08:29:03;13.50;57.20
11989;DHT22;6054;50.966;7.094;2024-02-23T08:31:30;13.60;57.30
11989;DHT22;6054;50.966;7.094;2024-02-23T08:33:59;13.60;57.50
11989;DHT22;6054;50.966;7.094;2024-02-23T08:36:26;13.70;57.10
11989;DHT22;6054;50.966;7.094;2024-02-23T08:38:53;13.70;56.70
11989;DHT22;6054;50.966;7.094;2024-02-23T08:41:20;13.70;56.60
11989;DHT22;6054;50.966;7.094;2024-02-23T08:43:47;13.70;56.90
11989;DHT22;6054;50.966;7.094;2024-02-23T08:46:15;13.80;57.10
11989;DHT22;6054;50.966;7.094;2024-02-23T08:48:42;14.30;57.60
11989;DHT22;6054;50.966;7.094;2024-02-23T08:51:10;13.90;56.70
11989;DHT22;6054;50.966;7.094;2024-02-23T08:53:37;13.90;56.20
11989;DHT22;6054;50.966;7.094;2024-02-23T08:56:06;13.90;55.70
11989;DHT22;6054;50.966;7.094;2024-02-23T08:58:33;13.90;55.60
11989;DHT22;6054;50.966;7.094;2024-02-23T09:00:59;13.90;55.10
11989;DHT22;6054;50.966;7.094;2024-02-23T09:03:26;13.90;56.40
11989;DHT22;6054;50.966;7.094;2024-02-23T09:05:55;14.00;56.80
11989;DHT22;6054;50.966;7.094;2024-02-23T09:08:23;14.10;57.00
11989;DHT22;6054;50.966;7.094;2024-02-23T09:10:50;14.10;56.30
11989;DHT22;6054;50.966;7.094;2024-02-23T09:13:16;14.40;56.20
11989;DHT22;6054;50.966;7.094;2024-02-23T09:15:43;14.10;55.40
11989;DHT22;6054;50.966;7.094;2024-02-23T09:18:10;14.20;56.00
11989;DHT22;6054;50.966;7.094;2024-02-23T09:20:37;14.10;56.00
11989;DHT22;6054;50.966;7.094;2024-02-23T09:23:04;14.20;56.30
11989;DHT22;6054;50.966;7.094;2024-02-23T09:25:32;14.20;56.30
11989;DHT22;6054;50.966;7.094;2024-02-23T09:28:00;14.20;55.80
11989;DHT22;6054;50.966;7.094;2024-02-23T09:30:27;14.30;56.00
11989;DHT22;6054;50.966;7.094;2024-02-23T09:32:55;14.30;56.00
11989;DHT22;6054;50.966;7.094;2024-02-23T09:35:22;14.30;53.40
11989;DHT22;6054;50.966;7.094;2024-02-23T09:37:49;14.30;53.30
11989;DHT22;6054;50.966;7.094;2024-02-23T09:40:16;14.30;53.70
11989;DHT22;6054;50.966;7.094;2024-02-23T09:42:50;14.30;53.80
11989;DHT22;6054;50.966;7.094;2024-02-23T09:45:19;14.30;53.40
11989;DHT22;6054;50.966;7.094;2024-02-23T09:47:47;14.40;54.60
11989;DHT22;6054;50.966;7.094;2024-02-23T09:50:17;14.40;55.00
11989;DHT22;6054;50.966;7.094;2024-02-23T09:52:47;14.50;56.20
11989;DHT22;6054;50.966;7.094;2024-02-23T09:55:16;14.50;54.30
11989;DHT22;6054;50.966;7.094;2024-02-23T09:57:44;14.50;53.70
11989;DHT22;6054;50.966;7.094;2024-02-23T10:00:12;14.60;53.70
11989;DHT22;6054;50.966;7.094;2024-02-23T10:02:40;14.60;54.80
11989;DHT22;6054;50.966;7.094;2024-02-23T10:05:08;14.90;54.20
11989;DHT22;6054;50.966;7.094;2024-02-23T10:07:40;14.70;55.50
11989;DHT22;6054;50.966;7.094;2024-02-23T10:10:09;14.80;54.80
11989;DHT22;6054;50.966;7.094;2024-02-23T10:12:36;14.80;53.80
11989;DHT22;6054;50.966;7.094;2024-02-23T10:15:06;14.80;54.20
11989;DHT22;6054;50.966;7.094;2024-02-23T10:17:33;14.80;53.40
11989;DHT22;6054;50.966;7.094;2024-02-23T10:20:00;14.80;52.30
11989;DHT22;6054;50.966;7.094;2024-02-23T10:22:30;14.80;53.10
11989;DHT22;6054;50.966;7.094;2024-02-23T10:24:57;14.90;54.00
11989;DHT22;6054;50.966;7.094;2024-02-23T10:27:24;14.90;51.60
11989;DHT22;6054;50.966;7.094;2024-02-23T10:29:51;14.90;52.10
11989;DHT22;6054;50.966;7.094;2024-02-23T10:32:23;15.00;51.20
11989;DHT22;6054;50.966;7.094;2024-02-23T10:34:52;15.00;53.30
11989;DHT22;6054;50.966;7.094;2024-02-23T10:37:19;15.00;53.20
11989;DHT22;6054;50.966;7.094;2024-02-23T10:39:48;15.00;52.10
11989;DHT22;6054;50.966;7.094;2024-02-23T10:42:18;15.10;51.30
11989;DHT22;6054;50.966;7.094;2024-02-23T10:44:50;15.40;51.10
11989;DHT22;6054;50.966;7.094;2024-02-23T10:47:20;15.40;52.40
11989;DHT22;6054;50.966;7.094;2024-02-23T10:49:48;15.40;52.80
11989;DHT22;6054;50.966;7.094;2024-02-23T10:52:15;15.20;53.60
11989;DHT22;6054;50.966;7.094;2024-02-23T10:54:46;15.30;53.30
11989;DHT22;6054;50.966;7.094;2024-02-23T10:57:13;15.50;53.90
11989;DHT22;6054;50.966;7.094;2024-02-23T10:59:40;15.40;53.60
11989;DHT22;6054;50.966;7.094;2024-02-23T11:02:07;15.60;53.00
11989;DHT22;6054;50.966;7.094;2024-02-23T11:04:37;15.40;51.50
11989;DHT22;6054;50.966;7.094;2024-02-23T11:07:13;15.40;53.10
11989;DHT22;6054;50.966;7.094;2024-02-23T11:09:40;15.40;52.90
11989;DHT22;6054;50.966;7.094;2024-02-23T11:12:08;15.40;53.30
11989;DHT22;6054;50.966;7.094;2024-02-23T11:14:36;15.50;51.30
11989;DHT22;6054;50.966;7.094;2024-02-23T11:17:04;15.70;53.10
11989;DHT22;6054;50.966;7.094;2024-02-23T11:19:35;15.50;51.50
11989;DHT22;6054;50.966;7.094;2024-02-23T11:22:03;15.60;50.80
11989;DHT22;6054;50.966;7.094;2024-02-23T11:24:31;15.60;50.30
11989;DHT22;6054;50.966;7.094;2024-02-23T11:27:02;15.60;51.80
11989;DHT22;6054;50.966;7.094;2024-02-23T11:29:34;15.70;48.80
11989;DHT22;6054;50.966;7.094;2024-02-23T11:32:02;15.60;50.10
11989;DHT22;6054;50.966;7.094;2024-02-23T11:34:29;15.70;51.00
11989;DHT22;6054;50.966;7.094;2024-02-23T11:36:58;15.70;50.80
11989;DHT22;6054;50.966;7.094;2024-02-23T11:39:34;15.70;51.50
11989;DHT22;6054;50.966;7.094;2024-02-23T11:42:03;15.80;52.40
11989;DHT22;6054;50.966;7.094;2024-02-23T11:44:31;15.80;52.50
11989;DHT22;6054;50.966;7.094;2024-02-23T11:46:58;15.80;50.70
11989;DHT22;6054;50.966;7.094;2024-02-23T11:49:27;15.80;50.80
11989;DHT22;6054;50.966;7.094;2024-02-23T11:51:54;15.80;50.70
11989;DHT22;6054;50.966;7.094;2024-02-23T11:54:23;15.80;50.50
11989;DHT22;6054;50.966;7.094;2024-02-23T11:56:50;15.80;50.10
11989;DHT22;6054;50.966;7.094;2024-02-23T11:59:18;15.80;50.80
11989;DHT22;6054;50.966;7.094;2024-02-23T12:01:46;16.00;51.20
11989;DHT22;6054;50.966;7.094;2024-02-23T12:04:13;15.90;51.70
11989;DHT22;6054;50.966;7.094;2024-02-23T12:06:42;15.90;50.80
11989;DHT22;6054;50.966;7.094;2024-02-23T12:09:10;15.90;50.40
11989;DHT22;6054;50.966;7.094;2024-02-23T12:11:40;15.90;50.60
11989;DHT22;6054;50.966;7.094;2024-02-23T12:14:07;15.90;51.40
11989;DHT22;6054;50.966;7.094;2024-02-23T12:16:34;15.90;49.60
11989;DHT22;6054;50.966;7.094;2024-02-23T12:19:02;16.10;50.80
11989;DHT22;6054;50.966;7.094;2024-02-23T12:21:29;15.80;50.00
11989;DHT22;6054;50.966;7.094;2024-02-23T12:23:56;15.90;50.30
11989;DHT22;6054;50.966;7.094;2024-02-23T12:26:24;15.90;50.20
11989;DHT22;6054;50.966;7.094;2024-02-23T12:29:00;15.90;47.80
11989;DHT22;6054;50.966;7.094;2024-02-23T12:31:28;15.80;48.20
11989;DHT22;6054;50.966;7.094;2024-02-23T12:33:57;15.70;48.20
11989;DHT22;6054;50.966;7.094;2024-02-23T12:36:27;15.70;49.50
11989;DHT22;6054;50.966;7.094;2024-02-23T12:38:56;16.10;50.20
11989;DHT22;6054;50.966;7.094;2024-02-23T12:41:23;15.80;49.70
11989;DHT22;6054;50.966;7.094;2024-02-23T12:43:51;16.00;50.40
11989;DHT22;6054;50.966;7.094;2024-02-23T12:46:18;15.80;50.00
11989;DHT22;6054;50.966;7.094;2024-02-23T12:48:45;15.80;49.30
11989;DHT22;6054;50.966;7.094;2024-02-23T12:51:13;16.00;50.90
11989;DHT22;6054;50.966;7.094;2024-02-23T12:53:40;15.90;50.30
11989;DHT22;6054;50.966;7.094;2024-02-23T12:56:09;16.00;50.70
11989;DHT22;6054;50.966;7.094;2024-02-23T12:58:37;16.00;49.90
11989;DHT22;6054;50.966;7.094;2024-02-23T13:01:07;16.00;50.30
11989;DHT22;6054;50.966;7.094;2024-02-23T13:03:35;16.20;50.50
11989;DHT22;6054;50.966;7.094;2024-02-23T13:06:02;16.10;50.40
11989;DHT22;6054;50.966;7.094;2024-02-23T13:08:29;16.20;48.90
11989;DHT22;6054;50.966;7.094;2024-02-23T13:10:57;16.20;50.60
11989;DHT22;6054;50.966;7.094;2024-02-23T13:13:24;16.30;48.60
11989;DHT22;6054;50.966;7.094;2024-02-23T13:15:53;16.30;49.20
11989;DHT22;6054;50.966;7.094;2024-02-23T13:18:21;16.60;50.20
11989;DHT22;6054;50.966;7.094;2024-02-23T13:20:48;16.80;49.60
11989;DHT22;6054;50.966;7.094;2024-02-23T13:23:15;16.40;48.40
11989;DHT22;6054;50.966;7.094;2024-02-23T13:25:43;16.40;48.00
11989;DHT22;6054;50.966;7.094;2024-02-23T13:28:10;16.60;49.30
11989;DHT22;6054;50.966;7.094;2024-02-23T13:30:37;16.40;49.90
11989;DHT22;6054;50.966;7.094;2024-02-23T13:33:04;16.40;49.40
11989;DHT22;6054;50.966;7.094;2024-02-23T13:35:33;16.50;50.20
11989;DHT22;6054;50.966;7.094;2024-02-23T13:38:00;16.50;49.60
11989;DHT22;6054;50.966;7.094;2024-02-23T13:40:28;16.50;48.90
11989;DHT22;6054;50.966;7.094;2024-02-23T13:42:56;16.60;50.30
11989;DHT22;6054;50.966;7.094;2024-02-23T13:45:22;16.70;50.50
11989;DHT22;6054;50.966;7.094;2024-02-23T13:48:04;16.90;49.60
11989;DHT22;6054;50.966;7.094;2024-02-23T13:50:32;17.10;50.40
11989;DHT22;6054;50.966;7.094;2024-02-23T13:52:59;17.20;48.70
11989;DHT22;6054;50.966;7.094;2024-02-23T13:55:26;17.40;47.20
11989;DHT22;6054;50.966;7.094;2024-02-23T13:57:53;17.40;46.50
11989;DHT22;6054;50.966;7.094;2024-02-23T14:00:20;17.40;46.30
11989;DHT22;6054;50.966;7.094;2024-02-23T14:02:48;17.40;47.00
11989;DHT22;6054;50.966;7.094;2024-02-23T14:05:15;17.40;46.10
11989;DHT22;6054;50.966;7.094;2024-02-23T14:07:45;17.40;46.60
11989;DHT22;6054;50.966;7.094;2024-02-23T14:10:11;17.40;47.60
11989;DHT22;6054;50.966;7.094;2024-02-23T14:12:39;17.30;47.10
11989;DHT22;6054;50.966;7.094;2024-02-23T14:15:06;17.30;46.60
11989;DHT22;6054;50.966;7.094;2024-02-23T14:17:34;17.30;47.90
11989;DHT22;6054;50.966;7.094;2024-02-23T14:20:01;17.30;47.90
11989;DHT22;6054;50.966;7.094;2024-02-23T14:22:29;17.30;47.40
11989;DHT22;6054;50.966;7.094;2024-02-23T14:24:57;17.40;46.50
11989;DHT22;6054;50.966;7.094;2024-02-23T14:27:24;17.30;46.50
11989;DHT22;6054;50.966;7.094;2024-02-23T14:29:52;17.40;45.90
11989;DHT22;6054;50.966;7.094;2024-02-23T14:32:19;17.30;45.20
11989;DHT22;6054;50.966;7.094;2024-02-23T14:34:47;17.30;46.00
11989;DHT22;6054;50.966;7.094;2024-02-23T14:37:15;17.40;47.10
11989;DHT22;6054;50.966;7.094;2024-02-23T14:39:42;17.40;46.50
11989;DHT22;6054;50.966;7.094;2024-02-23T14:42:11;17.50;45.50
11989;DHT22;6054;50.966;7.094;2024-02-23T14:44:38;17.60;46.40
11989;DHT22;6054;50.966;7.094;2024-02-23T14:47:04;17.60;45.70
11989;DHT22;6054;50.966;7.094;2024-02-23T14:49:31;17.70;45.50
11989;DHT22;6054;50.966;7.094;2024-02-23T14:51:58;17.70;45.20
11989;DHT22;6054;50.966;7.094;2024-02-23T14:54:25;17.70;44.10
11989;DHT22;6054;50.966;7.094;2024-02-23T14:56:52;17.60;43.70
11989;DHT22;6054;50.966;7.094;2024-02-23T14:59:20;17.60;43.80
11989;DHT22;6054;50.966;7.094;2024-02-23T15:01:47;17.50;43.70
11989;DHT22;6054;50.966;7.094;2024-02-23T15:04:14;17.40;43.40
11989;DHT22;6054;50.966;7.094;2024-02-23T15:06:42;17.30;42.90
11989;DHT22;6054;50.966;7.094;2024-02-23T15:09:10;17.20;43.60
11989;DHT22;6054;50.966;7.094;2024-02-23T15:11:37;17.20;43.70
11989;DHT22;6054;50.966;7.094;2024-02-23T15:14:03;17.10;43.90
11989;DHT22;6054;50.966;7.094;2024-02-23T15:16:32;17.10;43.40
11989;DHT22;6054;50.966;7.094;2024-02-23T15:18:59;17.40;44.00
11989;DHT22;6054;50.966;7.094;2024-02-23T15:21:26;17.00;43.20
11989;DHT22;6054;50.966;7.094;2024-02-23T15:23:53;16.90;44.20
11989;DHT22;6054;50.966;7.094;2024-02-23T15:26:20;16.90;43.90
11989;DHT22;6054;50.966;7.094;2024-02-23T15:28:47;16.90;45.00
11989;DHT22;6054;50.966;7.094;2024-02-23T15:31:14;16.90;45.50
11989;DHT22;6054;50.966;7.094;2024-02-23T15:33:42;17.00;45.50
11989;DHT22;6054;50.966;7.094;2024-02-23T15:36:10;17.00;44.60
11989;DHT22;6054;50.966;7.094;2024-02-23T15:38:37;17.10;45.20
11989;DHT22;6054;50.966;7.094;2024-02-23T15:41:05;16.90;45.30
11989;DHT22;6054;50.966;7.094;2024-02-23T15:43:32;16.90;44.50
11989;DHT22;6054;50.966;7.094;2024-02-23T15:45:59;16.90;44.30